Latest Weather Observations for Coolangatta

IDQ60901

Issued at 2:55 pm EST Wednesday 20 August 2014 (issued every 10 minutes, with the page automatically refreshed every 10 minutes)

About weather observations | Map of Brisbane area stations | Latest observations for Brisbane area | Other Formats
Station Details ID: 040717 Name: COOLANGATTA Lat: -28.17 Lon: 153.51 Height: 4.0 m
Data from the previous 72 hours. | See also: Recent months at Coolangatta
Date/Time
EST
Tmp

°C
App
Tmp
°C
Dew
Point
°C
Rel
Hum
%
Delta-T

°C
Wind Press
QNH
hPa
Press
MSL
hPa
Rain
since
9 am
mm
Dir
 
Spd
km/h
Gust
km/h
Spd
kts
Gust
kts
20/02:30pm 19.9 14.6 10.0 53 5.3 S 28 39 15 21 1018.8 1018.8 0.0
20/02:00pm 20.5 15.7 10.3 52 5.5 S 26 43 14 23 1018.8 1018.8 0.0
20/01:30pm 20.7 14.9 9.6 49 5.9 S 30 41 16 22 1019.0 1019.0 0.0
20/01:00pm 20.6 15.4 10.1 51 5.6 S 28 43 15 23 1019.1 1019.1 0.0
20/12:30pm 20.7 15.2 9.3 48 6.1 SSE 28 39 15 21 1019.0 1019.0 0.0
20/12:00pm 21.6 17.5 10.1 48 6.2 S 22 32 12 17 1019.3 1019.3 0.0
20/11:30am 20.6 15.9 9.2 48 6.0 S 24 35 13 19 1019.8 1019.8 0.0
20/11:00am 20.2 14.3 9.2 49 5.8 SSE 30 41 16 22 1020.1 1020.1 0.0
20/10:30am 20.3 15.8 10.1 52 5.5 SSW 24 35 13 19 1020.3 1020.3 0.0
20/10:00am 19.7 14.5 9.0 50 5.6 S 26 35 14 19 1020.3 1020.3 0.0
20/09:30am 19.1 14.2 8.4 50 5.5 SSW 24 35 13 19 1020.2 1020.2 0.0
20/09:00am 19.2 15.7 8.8 51 5.4 SSW 17 26 9 14 1020.1 1020.1 0.0
20/08:30am 18.1 13.9 8.1 52 5.1 SSW 20 33 11 18 1020.1 1020.1 0.0
20/08:00am 17.3 12.6 7.6 53 4.9 SSW 22 35 12 19 1020.0 1020.0 0.0
20/07:30am 16.7 12.0 7.6 55 4.6 SSW 22 35 12 19 1019.4 1019.4 0.0
20/07:00am 15.9 12.1 7.4 57 4.2 S 17 24 9 13 1019.1 1019.1 0.0
20/06:30am 15.5 11.2 7.8 60 3.8 S 20 30 11 16 1018.5 1018.5 0.0
20/06:00am 15.3 11.1 7.3 59 3.9 SSW 19 30 10 16 1018.1 1018.1 0.0
20/05:30am 15.3 11.4 7.3 59 4.0 SSW 17 28 9 15 1017.9 1017.9 0.0
20/05:00am 15.7 11.0 7.7 59 4.0 SSW 22 35 12 19 1017.5 1017.5 0.0
20/04:30am 15.2 11.0 7.5 60 3.8 SSW 19 28 10 15 1017.5 1017.5 0.0
20/04:00am 15.0 10.9 8.0 63 3.5 SSW 19 24 10 13 1017.3 1017.3 0.0
20/03:51am 15.0 11.1 8.7 66 3.2 SSW 19 24 10 13 1017.3 1017.3 0.0
20/03:30am 10.0 8.4 8.9 93 0.5 S 7 17 4 9 1017.3 1017.3 0.0
20/03:00am 9.2 7.5 7.5 89 0.8 S 6 7 3 4 1017.0 1017.0 0.0
20/02:30am 10.4 8.6 9.3 93 0.5 S 9 9 5 5 1016.8 1016.8 0.0
20/02:00am 10.6 10.3 8.7 88 0.9 CALM 0 0 0 0 1016.8 1016.8 0.0
20/01:30am 10.9 9.3 8.0 82 1.4 S 6 7 3 4 1016.8 1016.8 0.0
20/01:00am 12.9 11.0 9.0 77 2.0 SW 9 11 5 6 1016.7 1016.7 0.0
20/12:30am 13.3 11.2 9.9 80 1.7 WSW 11 13 6 7 1016.8 1016.8 0.0
20/12:00am 11.4 10.7 8.6 83 1.4 WNW 2 9 1 5 1016.6 1016.6 0.0
 
Date/Time
EST
Tmp

°C
App
Tmp
°C
Dew
Point
°C
Rel
Hum
%
Delta-T

°C
Wind Press
QNH
hPa
Press
MSL
hPa
Rain
since
9 am
mm
Dir
 
Spd
km/h
Gust
km/h
Spd
kts
Gust
kts
19/11:30pm 12.5 12.2 8.6 77 1.9 CALM 0 0 0 0 1016.5 1016.5 0.0
19/11:00pm 12.4 12.0 8.1 75 2.1 CALM 0 6 0 3 1016.5 1016.5 0.0
19/10:30pm 11.9 11.5 8.4 79 1.7 WSW 0 0 0 0 1016.3 1016.3 0.0
19/10:00pm 13.8 13.4 9.6 76 2.1 WSW 2 7 1 4 1016.1 1016.1 0.0
19/09:30pm 13.4 13.0 9.6 78 1.9 SW 2 9 1 5 1016.1 1016.1 0.0
19/09:00pm 14.9 14.8 9.5 70 2.8 CALM 0 0 0 0 1015.8 1015.8 0.0
19/08:30pm 15.9 14.2 10.0 68 3.1 SSW 9 13 5 7 1015.8 1015.8 0.0
19/08:00pm 16.7 13.9 10.1 65 3.5 SSW 15 20 8 11 1015.7 1015.7 0.0
19/07:30pm 17.1 13.5 10.0 63 3.7 SSW 19 32 10 17 1015.6 1015.6 0.0
19/07:00pm 17.7 14.0 10.1 61 4.0 S 20 32 11 17 1015.1 1015.1 0.0
19/06:30pm 17.5 14.3 11.1 66 3.5 S 19 24 10 13 1014.4 1014.4 0.0
19/06:00pm 17.9 14.5 10.5 62 4.0 S 19 24 10 13 1014.0 1014.0 0.0
19/05:30pm 18.1 14.6 11.0 63 3.8 SSE 20 28 11 15 1013.4 1013.4 0.0
19/05:00pm 18.9 17.2 9.7 55 4.9 E 9 13 5 7 1012.2 1012.2 0.0
19/04:30pm 19.8 17.6 9.4 51 5.5 ENE 11 13 6 7 1011.6 1011.6 0.0
19/04:00pm 20.6 18.3 8.9 47 6.2 NE 11 15 6 8 1011.4 1011.4 0.0
19/03:30pm 20.3 17.2 8.9 48 6.0 ENE 15 19 8 10 1011.1 1011.1 0.0
19/03:00pm 20.5 17.2 9.4 49 5.9 ENE 17 22 9 12 1010.9 1010.9 0.0
19/02:30pm 20.6 16.9 9.5 49 5.9 ENE 19 20 10 11 1010.7 1010.7 0.0
19/02:00pm 20.5 16.8 9.4 49 5.9 ENE 19 24 10 13 1010.5 1010.5 0.0
19/01:30pm 21.2 17.1 8.5 44 6.7 NE 20 26 11 14 1010.5 1010.5 0.0
19/01:00pm 21.7 18.5 9.9 47 6.4 NE 17 24 9 13 1010.7 1010.7 0.0
19/12:30pm 23.1 19.5 6.8 35 8.4 S 15 24 8 13 1010.8 1010.8 0.0
19/12:00pm 23.1 18.7 7.2 36 8.3 S 20 24 11 13 1011.2 1011.2 0.0
19/11:30am 22.4 19.9 6.6 36 8.1 WSW 9 15 5 8 1011.6 1011.6 0.0
19/11:00am 21.6 18.4 6.7 38 7.6 SW 13 20 7 11 1011.9 1011.9 0.0
19/10:30am 21.0 18.7 7.6 42 6.9 WSW 9 17 5 9 1012.1 1012.1 0.0
19/10:00am 20.5 18.3 7.8 44 6.6 SW 9 13 5 7 1012.4 1012.4 0.0
19/09:30am 19.7 17.6 6.8 43 6.5 ESE 7 11 4 6 1012.7 1012.7 0.0
19/09:00am 19.0 16.6 6.8 45 6.1 NNE 9 13 5 7 1012.6 1012.6 0.0
19/08:30am 18.3 16.8 8.6 53 5.0 N 6 7 3 4 1012.6 1012.6 0.0
19/08:00am 15.6 15.4 9.1 65 3.3 CALM 0 0 0 0 1012.4 1012.4 0.0
19/07:30am 12.4 10.9 8.3 76 2.0 WSW 6 9 3 5 1012.2 1012.2 0.0
19/07:00am 10.6 9.6 8.9 89 0.8 SSW 4 7 2 4 1012.0 1012.0 0.0
19/06:30am 8.7 7.2 7.0 89 0.8 WSW 4 11 2 6 1011.5 1011.5 0.0
19/06:00am 7.6 5.4 6.1 90 0.7 S 7 9 4 5 1011.2 1011.2 0.0
19/05:30am 8.0 5.9 5.8 86 1.0 WSW 6 9 3 5 1010.9 1010.9 0.0
19/05:00am 8.6 6.1 6.6 87 0.9 W 9 13 5 7 1010.3 1010.3 0.0
19/04:30am 10.5 8.3 7.7 83 1.3 W 9 17 5 9 1010.0 1010.0 0.0
19/04:00am 10.6 8.5 8.2 85 1.2 SE 9 15 5 8 1010.2 1010.2 0.0
19/03:30am 8.3 6.3 6.3 87 0.9 W 6 11 3 6 1010.0 1010.0 0.0
19/03:00am 8.6 6.6 7.2 91 0.7 WSW 7 11 4 6 1010.2 1010.2 0.0
19/02:30am 9.3 8.3 7.4 88 0.9 S 2 7 1 4 1010.3 1010.3 0.0
19/02:00am 10.4 8.5 7.6 83 1.3 SW 7 9 4 5 1010.5 1010.5 0.0
19/01:30am 11.2 9.1 5.7 69 2.5 WNW 6 11 3 6 1010.5 1010.5 0.0
19/01:00am 13.9 10.8 7.2 64 3.3 NNW 13 13 7 7 1010.7 1010.7 0.0
19/12:30am 14.3 11.4 6.6 60 3.7 NNW 11 13 6 7 1011.0 1011.0 0.0
19/12:00am 14.7 11.6 7.3 61 3.6 WSW 13 20 7 11 1011.3 1011.3 0.0
 
Date/Time
EST
Tmp

°C
App
Tmp
°C
Dew
Point
°C
Rel
Hum
%
Delta-T

°C
Wind Press
QNH
hPa
Press
MSL
hPa
Rain
since
9 am
mm
Dir
 
Spd
km/h
Gust
km/h
Spd
kts
Gust
kts
18/11:30pm 15.5 11.6 7.0 57 4.2 WNW 17 20 9 11 1011.2 1011.2 0.0
18/11:00pm 15.5 12.0 7.0 57 4.2 W 15 20 8 11 1011.4 1011.4 0.0
18/10:30pm 15.5 11.5 6.8 56 4.3 W 17 24 9 13 1011.5 1011.5 0.0
18/10:00pm 15.4 11.8 6.9 57 4.2 W 15 20 8 11 1011.4 1011.4 0.0
18/09:30pm 16.2 12.6 6.9 54 4.6 NW 15 24 8 13 1011.3 1011.3 0.0
18/09:00pm 16.3 11.9 6.7 53 4.7 WNW 19 28 10 15 1011.0 1011.0 0.0
18/08:30pm 16.5 11.2 6.9 53 4.7 W 24 35 13 19 1010.7 1010.7 0.0
18/08:00pm 16.5 12.1 6.6 52 4.9 WNW 19 28 10 15 1010.6 1010.6 0.0
18/07:30pm 16.4 13.1 6.5 52 4.8 NW 13 20 7 11 1010.5 1010.5 0.0
18/07:00pm 16.6 12.5 6.4 51 5.0 WNW 17 24 9 13 1009.8 1009.8 0.0
18/06:30pm 16.8 12.2 6.3 50 5.1 WNW 20 30 11 16 1009.4 1009.4 0.0
18/06:00pm 17.6 12.2 6.2 47 5.6 WNW 24 32 13 17 1008.8 1008.8 0.0
18/05:30pm 18.0 14.0 6.8 48 5.6 NW 17 26 9 14 1008.7 1008.7 0.0
18/05:00pm 18.2 14.3 7.0 48 5.6 NW 17 30 9 16 1008.5 1008.5 0.0
18/04:30pm 18.6 14.3 6.8 46 5.9 NW 19 28 10 15 1008.0 1008.0 0.0
18/04:00pm 18.8 13.8 6.6 45 6.1 W 22 33 12 18 1007.5 1007.5 0.0
18/03:30pm 18.8 13.4 6.3 44 6.2 WNW 24 39 13 21 1007.1 1007.1 0.0
18/03:00pm 20.7 16.1 6.6 40 7.1 WNW 20 33 11 18 1006.9 1006.9 0.0
18/02:30pm 19.5 15.4 6.3 42 6.6 WNW 17 24 9 13 1007.1 1007.1 0.0
18/02:00pm 20.2 16.0 5.8 39 7.2 WNW 17 30 9 16 1007.0 1007.0 0.0
18/01:30pm 20.4 15.3 6.0 39 7.2 WNW 22 33 12 18 1007.1 1007.1 0.0
18/01:00pm 20.1 14.4 5.0 37 7.4 WNW 24 35 13 19 1007.3 1007.3 0.0
18/12:30pm 20.5 16.0 6.1 39 7.2 WNW 19 30 10 16 1007.5 1007.5 0.0
18/12:00pm 19.9 15.5 4.8 37 7.3 WNW 17 39 9 21 1007.8 1007.8 0.0
18/11:30am 19.4 13.1 5.5 40 6.8 NW 28 39 15 21 1008.4 1008.4 0.0
18/11:00am 18.8 12.0 5.3 41 6.6 NW 30 41 16 22 1008.7 1008.7 0.0
18/10:30am 18.1 12.0 4.7 41 6.4 WNW 26 41 14 22 1009.0 1009.0 0.0
18/10:00am 18.1 11.7 5.0 42 6.3 WNW 28 43 15 23 1009.6 1009.6 0.0
18/09:30am 17.5 11.7 4.5 42 6.2 WNW 24 33 13 18 1009.4 1009.4 0.0
18/09:00am 17.5 14.8 7.5 52 5.0 W 11 20 6 11 1009.4 1009.4 0.0
18/08:30am 16.3 12.6 8.0 58 4.2 NW 17 20 9 11 1009.5 1009.5 0.0
18/08:00am 14.8 12.0 8.5 66 3.2 NW 13 19 7 10 1009.7 1009.7 0.0
18/07:30am 13.9 12.3 8.7 71 2.6 WNW 7 11 4 6 1009.8 1009.8 0.0
18/07:00am 12.1 9.6 8.0 76 2.0 NNW 11 15 6 8 1009.5 1009.5 0.0
18/06:30am 9.8 6.5 8.1 89 0.8 NNW 15 19 8 10 1009.2 1009.2 0.0
18/06:00am 6.5 3.8 5.6 94 0.4 W 9 11 5 6 1009.2 1009.2 0.0
18/05:30am 5.8 2.5 4.8 93 0.4 WNW 11 13 6 7 1009.0 1009.0 0.0
18/05:00am 6.6 4.5 5.7 94 0.4 WSW 6 9 3 5 1009.0 1009.0 0.0
18/04:30am 7.0 4.7 5.9 93 0.5 WSW 7 9 4 5 1008.9 1008.9 0.0
18/04:00am 7.3 5.4 6.6 95 0.3 WSW 6 7 3 4 1009.0 1009.0 0.0
18/03:30am 6.6 4.3 5.6 93 0.4 WSW 7 9 4 5 1009.1 1009.1 0.0
18/03:00am 7.3 4.7 6.2 93 0.5 WSW 9 11 5 6 1009.2 1009.2 0.0
18/02:30am 7.4 5.1 5.9 90 0.7 WSW 7 9 4 5 1009.5 1009.5 0.0
18/02:00am 7.8 5.3 6.4 91 0.6 WSW 9 13 5 7 1009.8 1009.8 0.0
18/01:30am 7.8 5.2 6.3 90 0.7 WSW 9 13 5 7 1009.9 1009.9 0.0
18/01:00am 8.5 6.7 7.1 91 0.7 WSW 6 7 3 4 1010.2 1010.2 0.0
18/12:30am 8.4 6.0 7.0 91 0.7 WSW 9 9 5 5 1010.3 1010.3 0.0
18/12:00am 8.5 6.4 6.5 87 0.9 WSW 7 11 4 6 1010.4 1010.4 0.0
 
Date/Time
EST
Tmp

°C
App
Tmp
°C
Dew
Point
°C
Rel
Hum
%
Delta-T

°C
Wind Press
QNH
hPa
Press
MSL
hPa
Rain
since
9 am
mm
Dir
 
Spd
km/h
Gust
km/h
Spd
kts
Gust
kts
17/11:30pm 9.2 7.3 6.8 85 1.1 SW 6 7 3 4 1010.5 1010.5 0.0
17/11:00pm 9.8 8.0 7.1 83 1.3 WSW 6 7 3 4 1010.7 1010.7 0.0
17/10:30pm 9.9 7.8 6.8 81 1.5 WSW 7 9 4 5 1010.7 1010.7 0.0
17/10:00pm 10.5 8.5 6.3 75 2.0 WSW 6 7 3 4 1010.8 1010.8 0.0
17/09:30pm 10.9 8.4 6.5 74 2.1 W 9 13 5 7 1010.8 1010.8 0.0
17/09:00pm 12.3 9.1 5.0 61 3.4 WNW 11 15 6 8 1010.8 1010.8 0.0
17/08:30pm 14.3 10.2 4.3 51 4.6 NNW 15 17 8 9 1010.5 1010.5 0.0
17/08:00pm 14.0 10.3 4.6 53 4.3 NW 13 15 7 8 1010.2 1010.2 0.0
17/07:30pm 14.6 12.1 4.0 49 4.9 WNW 6 7 3 4 1009.8 1009.8 0.0
17/07:00pm 14.6 11.7 4.6 51 4.7 WNW 9 13 5 7 1009.2 1009.2 0.0
17/06:30pm 16.5 12.9 3.2 41 6.1 NNW 11 13 6 7 1008.8 1008.8 0.0
17/06:00pm 17.0 13.2 1.8 36 6.8 NW 11 13 6 7 1008.1 1008.1 0.0
17/05:30pm 19.0 14.6 0.6 29 8.2 WNW 13 20 7 11 1007.5 1007.5 0.0
17/05:00pm 20.3 15.6 0.7 27 8.8 NW 15 20 8 11 1007.0 1007.0 0.0
17/04:30pm 21.5 16.8 0.7 25 9.4 WNW 15 24 8 13 1006.6 1006.6 0.0
17/04:00pm 22.2 17.2 1.3 25 9.7 WNW 17 26 9 14 1006.3 1006.3 0.0
17/03:30pm 22.8 17.6 3.4 28 9.4 WNW 20 28 11 15 1006.1 1006.1 0.0
17/03:00pm 22.9 17.7 3.4 28 9.4 WNW 20 30 11 16 1006.0 1006.0 0.0

Latest Capital City Observations: Canberra | Sydney | Melbourne | Brisbane | Adelaide | Perth | Hobart | Darwin

Other Formats:

Comma delimited format used in spreadsheet applications
http://www.bom.gov.au/fwo/IDQ60901/IDQ60901.94592.axf

JavaScript Object Notation format (JSON) in row-major order
http://www.bom.gov.au/fwo/IDQ60901/IDQ60901.94592.json